Florence, MS (39073)

8:53 AM CDT on August 04, 2015 (GMT -0500)
Whites Cove | | Change Station
CLOSE
Current Station
Personal Weather Station
Location: Florence, MS
Elevation: 322 ft
Nearby Weather Stations

Elev 322 ft 32.14 °N, 90.14 °W | Updated 3 minutes ago

Clear
Clear
83.2 °F
Feels Like 92 °F
N
0.0
Wind Variable Wind from SE
Gusts 0.0 mph

Today
High -- | Low -- °F
--% Chance of Precip.
Yesterday
High -- | Low -- °F
Precip. -- in
6:17 AM 7:55 PM
Waning Gibbous, 77% visible
Pressure 29.98 in
Visibility 9.0 miles
Clouds Clear
Heat Index 92 °F
Dew Point 77 °F
Humidity 82%
Rainfall 0.00 in
Snow Depth Not available.
UV 1 out of 12
Pollen 4.00 out of 12
Air Quality Not available.
Flu Activity Not available.
METAR KJAN 041254Z 18004KT 9SM CLR 27/23 A3000 RMK AO2 SLP152 T02670228

More Conditions Fewer Conditions

Pressure 29.98 in
Visibility 9.0 miles
Clouds Clear
Heat Index 92 °F
Dew Point 77 °F
Humidity 82%
Rainfall 0.00 in
Snow Depth Not available.
UV 1 out of 12
Pollen 4.00 out of 12
Air Quality Not available.
Flu Activity Not available.
METAR KJAN 041254Z 18004KT 9SM CLR 27/23 A3000 RMK AO2 SLP152 T02670228

More Conditions Fewer Conditions

10-Day Weather Forecast

×

Almanac

Astronomy

Aug. 04, 2015 Rise Set
Actual Time
Civil Twilight
Nautical Twilight
Astronomical Twilight
Moon
Length of Visible Light
Length of Day
Tomorrow will be .
, % of the Moon is Illuminated

Today's Extremes

State Highs State Lows

Community

WunderPhotos

Upload Photos

1,843,912 photos uploaded!

WunderBlogs® & News

Nearby

Air Quality

  Air Quality AQ Index Pollutant
Not available.

Snow Depth

Station Depth Elevation

Earthquake Activity

City Distance Mag. Time & Date
Minimum magnitude displayed is 2.5.

Coastal Water Temperatures

Place Temperature

Stations

Nearby Weather Stations

Station Location Temp. Windchill Dew Point Humidity Wind Precip. Elev Updated Type